createdAt,value
2019-05-13T00:00:34.257Z,5.28
2019-05-13T00:03:03.757Z,1.42
2019-05-13T00:05:33.990Z,2.83
2019-05-13T00:08:03.679Z,1.92
2019-05-13T00:10:35.047Z,1.15
2019-05-13T00:13:04.426Z,4.03
2019-05-13T00:15:34.188Z,2.37
2019-05-13T00:18:03.990Z,2.27
2019-05-13T00:20:34.063Z,5.47
2019-05-13T00:23:03.891Z,1.37
2019-05-13T00:25:35.509Z,1.62
2019-05-13T00:28:04.404Z,1.40
2019-05-13T00:30:34.193Z,2.35
2019-05-13T00:33:03.995Z,2.33
2019-05-13T00:35:33.852Z,2.47
2019-05-13T00:38:03.906Z,1.47
2019-05-13T00:40:34.002Z,1.52
2019-05-13T00:43:03.992Z,1.98
2019-05-13T00:45:33.893Z,2.98
2019-05-13T00:48:04.673Z,2.67
2019-05-13T00:50:35.291Z,2.42
2019-05-13T00:53:04.614Z,4.45
2019-05-13T00:55:34.695Z,2.33
2019-05-13T00:58:04.863Z,4.03
2019-05-13T01:00:34.095Z,2.90
2019-05-13T01:03:03.960Z,3.98
2019-05-13T01:05:33.993Z,1.35
2019-05-13T01:08:05.840Z,2.08
2019-05-13T01:10:34.849Z,2.17
2019-05-13T01:13:04.657Z,2.37
2019-05-13T01:15:34.635Z,1.80
2019-05-13T01:18:04.169Z,1.27
2019-05-13T01:20:34.776Z,3.35
2019-05-13T01:23:04.059Z,1.17
2019-05-13T01:25:34.343Z,1.45
2019-05-13T01:28:04.619Z,1.60
2019-05-13T01:30:34.589Z,4.83
2019-05-13T01:33:04.323Z,3.60
2019-05-13T01:35:34.228Z,3.17
2019-05-13T01:38:04.544Z,3.95
2019-05-13T01:40:34.886Z,1.95
2019-05-13T01:43:04.218Z,2.25
2019-05-13T01:45:33.861Z,4.45
2019-05-13T01:48:07.237Z,2.92
2019-05-13T01:50:34.056Z,3.42
2019-05-13T01:53:04.314Z,7.05
2019-05-13T01:55:34.139Z,4.67
2019-05-13T01:58:04.206Z,5.70
2019-05-13T02:00:35.395Z,5.33
2019-05-13T02:03:04.376Z,2.75
2019-05-13T02:05:37.013Z,1.60
2019-05-13T02:08:05.750Z,1.85
2019-05-13T02:10:54.317Z,1.75
2019-05-13T02:13:24.346Z,2.83
2019-05-13T02:15:55.574Z,1.50
2019-05-13T02:18:24.839Z,2.30
2019-05-13T02:20:55.382Z,2.37
2019-05-13T02:23:24.370Z,3.42
2019-05-13T02:25:54.320Z,2.72
2019-05-13T02:28:33.586Z,3.83
2019-05-13T02:31:02.266Z,3.12
2019-05-13T02:33:33.977Z,2.05
2019-05-13T02:36:02.889Z,2.45
2019-05-13T02:38:35.474Z,2.15
2019-05-13T02:41:03.057Z,2.52
2019-05-13T02:43:33.334Z,4.33
2019-05-13T02:46:04.525Z,7.67
2019-05-13T02:48:35.023Z,2.12
2019-05-13T02:51:04.159Z,2.45
2019-05-13T02:53:33.735Z,4.65
2019-05-13T02:56:03.286Z,4.53
2019-05-13T02:58:33.270Z,5.28
2019-05-13T03:01:03.556Z,4.78
2019-05-13T03:03:33.154Z,8.85
2019-05-13T03:06:02.891Z,8.70
2019-05-13T03:08:41.046Z,6.78
2019-05-13T03:11:03.317Z,8.50
2019-05-13T03:13:32.858Z,8.70
2019-05-13T03:16:15.476Z,8.28
2019-05-13T03:18:45.147Z,9.55
2019-05-13T03:21:13.807Z,8.75
2019-05-13T03:23:43.946Z,11.60
2019-05-13T03:26:13.516Z,9.48
2019-05-13T03:28:43.977Z,14.98
2019-05-13T03:31:16.661Z,11.43
2019-05-13T03:33:46.698Z,10.88
2019-05-13T03:36:16.379Z,8.43
2019-05-13T03:39:01.827Z,12.20
2019-05-13T03:41:16.965Z,13.60
2019-05-13T03:43:46.485Z,12.18
2019-05-13T03:46:15.318Z,9.45
2019-05-13T03:48:45.396Z,8.55
2019-05-13T03:51:14.255Z,6.60
2019-05-13T03:53:43.808Z,9.33
2019-05-13T03:56:13.265Z,12.88
2019-05-13T03:58:43.651Z,5.17
2019-05-13T04:01:13.533Z,10.28
2019-05-13T04:03:44.060Z,11.28
2019-05-13T04:06:14.059Z,13.18
2019-05-13T04:08:43.795Z,8.95
2019-05-13T04:11:13.250Z,7.62
2019-05-13T04:13:43.079Z,5.58
2019-05-13T04:16:13.444Z,5.75
2019-05-13T04:18:44.604Z,8.48
2019-05-13T04:21:13.709Z,9.98
2019-05-13T04:23:43.105Z,4.60
2019-05-13T04:26:14.730Z,5.05
2019-05-13T04:28:43.552Z,4.30
2019-05-13T04:31:14.528Z,6.72
2019-05-13T04:33:43.519Z,9.38
2019-05-13T04:36:13.693Z,7.53
2019-05-13T04:38:44.129Z,10.82
2019-05-13T04:41:13.147Z,10.75
2019-05-13T04:43:43.544Z,13.15
2019-05-13T04:46:14.275Z,21.37
2019-05-13T04:48:44.622Z,19.32
2019-05-13T04:51:14.276Z,18.60
2019-05-13T04:53:43.743Z,16.23
2019-05-13T04:56:13.597Z,20.85
2019-05-13T04:58:43.478Z,25.50
2019-05-13T05:01:17.727Z,15.18
2019-05-13T05:03:55.294Z,27.82
2019-05-13T05:06:32.852Z,16.02
2019-05-13T05:09:08.765Z,21.30
2019-05-13T05:11:56.500Z,24.32
2019-05-13T05:14:46.625Z,17.15
2019-05-13T05:17:24.485Z,18.57
2019-05-13T05:20:07.923Z,13.00
2019-05-13T05:22:57.456Z,14.60
2019-05-13T05:26:01.255Z,14.38
2019-05-13T05:28:41.234Z,13.88
2019-05-13T05:31:18.270Z,14.73
2019-05-13T05:33:56.295Z,9.75
2019-05-13T05:36:52.697Z,17.82
2019-05-13T05:39:28.404Z,14.50
2019-05-13T05:42:02.175Z,18.23
2019-05-13T05:44:32.400Z,17.37
2019-05-13T05:47:03.360Z,26.55
2019-05-13T05:49:32.636Z,13.78
2019-05-13T05:52:04.350Z,18.05
2019-05-13T05:54:35.907Z,28.98
2019-05-13T05:57:06.005Z,10.38
2019-05-13T05:59:35.656Z,14.60
2019-05-13T06:02:05.339Z,24.07
2019-05-13T06:04:34.000Z,14.78
2019-05-13T06:07:03.595Z,18.17
2019-05-13T06:09:32.766Z,9.10
2019-05-13T06:12:02.091Z,14.10
2019-05-13T06:14:32.669Z,14.73
2019-05-13T06:17:02.708Z,15.00
2019-05-13T06:19:32.186Z,11.65
2019-05-13T06:22:02.359Z,20.60
2019-05-13T06:24:31.923Z,13.70
2019-05-13T06:27:01.812Z,19.77
2019-05-13T06:29:31.641Z,26.30
2019-05-13T06:32:15.055Z,13.80
2019-05-13T06:34:33.139Z,11.63
2019-05-13T06:37:02.156Z,11.22
2019-05-13T06:39:31.974Z,13.38
2019-05-13T06:42:03.033Z,14.20
2019-05-13T06:44:31.987Z,15.00
2019-05-13T06:47:02.677Z,13.83
2019-05-13T06:49:32.226Z,13.48
2019-05-13T06:52:01.952Z,24.67
2019-05-13T06:54:33.063Z,21.40
2019-05-13T06:57:04.348Z,19.02
2019-05-13T06:59:32.106Z,16.90
2019-05-13T07:02:02.113Z,27.80
2019-05-13T07:04:32.719Z,13.35
2019-05-13T07:07:12.251Z,20.55
2019-05-13T07:09:32.703Z,19.50
2019-05-13T07:12:03.171Z,18.25
2019-05-13T07:14:32.642Z,15.10
2019-05-13T07:17:02.118Z,18.10
2019-05-13T07:19:32.222Z,24.80
2019-05-13T07:22:02.723Z,19.55
2019-05-13T07:24:32.433Z,20.72
2019-05-13T07:27:02.032Z,17.75
2019-05-13T07:29:32.462Z,14.47
2019-05-13T07:32:01.961Z,23.60
2019-05-13T07:34:33.623Z,13.68
2019-05-13T07:37:02.354Z,18.62
2019-05-13T07:39:32.943Z,25.27
2019-05-13T07:42:05.271Z,23.57
2019-05-13T07:44:32.643Z,20.70
2019-05-13T07:47:03.300Z,18.27
2019-05-13T07:49:32.194Z,21.35
2019-05-13T07:52:01.813Z,25.23
2019-05-13T07:54:33.014Z,20.80
2019-05-13T07:57:02.185Z,16.32
2019-05-13T07:59:32.070Z,20.75
2019-05-13T08:02:02.207Z,19.75
2019-05-13T08:04:33.380Z,19.00
2019-05-13T08:07:02.490Z,18.87
2019-05-13T08:09:32.162Z,21.65
2019-05-13T08:12:10.240Z,18.75
2019-05-13T08:14:34.063Z,20.32
2019-05-13T08:17:03.072Z,21.90
2019-05-13T08:19:32.794Z,31.20
2019-05-13T08:22:02.400Z,20.97
2019-05-13T08:24:31.836Z,22.30
2019-05-13T08:27:02.113Z,22.40
2019-05-13T08:29:32.893Z,23.12
2019-05-13T08:32:02.976Z,24.18
2019-05-13T08:34:33.181Z,26.87
2019-05-13T08:37:03.443Z,22.98
2019-05-13T08:39:38.086Z,31.33
2019-05-13T08:42:15.572Z,25.05
2019-05-13T08:44:34.355Z,28.62
2019-05-13T08:47:03.605Z,27.25
2019-05-13T08:49:32.763Z,23.57
2019-05-13T08:52:02.037Z,24.57
2019-05-13T08:54:32.762Z,32.25
2019-05-13T08:57:02.914Z,22.40
2019-05-13T08:59:32.308Z,24.37
2019-05-13T09:02:04.082Z,21.85
2019-05-13T09:04:32.809Z,22.13
2019-05-13T09:07:02.634Z,24.00
2019-05-13T09:09:32.270Z,21.60
2019-05-13T09:12:02.598Z,26.10
2019-05-13T09:14:32.506Z,22.55
2019-05-13T09:17:01.949Z,22.42
2019-05-13T09:19:32.264Z,23.50
2019-05-13T09:22:02.981Z,19.07
2019-05-13T09:24:37.340Z,19.27
2019-05-13T09:27:02.372Z,24.90
2019-05-13T09:29:32.235Z,21.05
2019-05-13T09:32:03.752Z,16.87
2019-05-13T09:34:33.188Z,19.23
2019-05-13T09:37:02.695Z,16.65
2019-05-13T09:39:32.487Z,14.83
2019-05-13T09:44:32.852Z,16.73
2019-05-13T09:47:02.808Z,18.00
2019-05-13T09:49:32.991Z,15.78
2019-05-13T09:52:02.184Z,17.67
2019-05-13T09:54:32.757Z,16.82
2019-05-13T09:57:01.985Z,20.08
2019-05-13T09:59:31.786Z,18.65
2019-05-13T10:02:03.136Z,22.77
2019-05-13T10:04:32.019Z,27.10
2019-05-13T10:07:02.138Z,24.82
2019-05-13T10:09:32.691Z,21.23
2019-05-13T10:12:03.178Z,20.10
2019-05-13T10:14:32.903Z,21.77
2019-05-13T10:17:06.090Z,25.80
2019-05-13T10:19:32.776Z,19.57
2019-05-13T10:22:01.892Z,20.70
2019-05-13T10:24:32.696Z,12.85
2019-05-13T10:27:02.588Z,15.60
2019-05-13T10:29:32.236Z,19.07
2019-05-13T10:32:02.707Z,24.23
2019-05-13T10:34:32.491Z,15.28
2019-05-13T10:37:02.777Z,16.15
2019-05-13T10:39:31.704Z,12.78
2019-05-13T10:42:03.019Z,11.68
2019-05-13T10:44:30.838Z,14.15
2019-05-13T10:47:01.982Z,12.43
2019-05-13T10:49:32.759Z,14.30
2019-05-13T10:52:02.877Z,17.32
2019-05-13T10:54:32.509Z,12.00
2019-05-13T10:57:03.947Z,11.30
2019-05-13T10:59:31.629Z,13.85
2019-05-13T11:02:02.156Z,16.50
2019-05-13T11:04:32.698Z,12.25
2019-05-13T11:07:03.017Z,11.90
2019-05-13T11:09:32.925Z,10.98
2019-05-13T11:12:02.203Z,13.78
2019-05-13T11:14:32.269Z,10.58
2019-05-13T11:17:01.727Z,11.22
2019-05-13T11:19:36.163Z,11.18
2019-05-13T11:22:03.379Z,11.93
2019-05-13T11:24:32.666Z,10.68
2019-05-13T11:27:02.825Z,11.45
2019-05-13T11:29:32.653Z,12.93
2019-05-13T11:32:03.237Z,13.62
2019-05-13T11:34:32.882Z,17.40
2019-05-13T11:37:03.654Z,11.68
2019-05-13T11:39:32.851Z,11.80
2019-05-13T11:42:02.270Z,12.40
2019-05-13T11:44:32.248Z,13.10
2019-05-13T11:47:02.434Z,16.62
2019-05-13T11:49:31.838Z,22.42
2019-05-13T11:54:31.117Z,13.25
2019-05-13T11:57:02.564Z,10.28
2019-05-13T11:59:32.745Z,14.18
2019-05-13T12:02:07.434Z,14.93
2019-05-13T12:04:49.216Z,11.25
2019-05-13T12:07:17.872Z,17.32
2019-05-13T12:09:46.525Z,9.35
2019-05-13T12:12:30.488Z,14.73
2019-05-13T12:15:22.474Z,11.95
2019-05-13T12:17:24.781Z,9.10
2019-05-13T12:20:20.823Z,9.68
2019-05-13T12:22:53.810Z,9.65
2019-05-13T12:25:22.631Z,9.83
2019-05-13T12:28:07.427Z,10.08
2019-05-13T12:30:44.386Z,12.68
2019-05-13T12:33:13.673Z,9.05
2019-05-13T12:35:42.412Z,9.83
2019-05-13T12:38:13.428Z,16.07
2019-05-13T12:40:43.109Z,12.18
2019-05-13T12:43:13.455Z,13.65
2019-05-13T12:45:43.553Z,8.93
2019-05-13T12:48:13.923Z,9.88
2019-05-13T12:50:44.252Z,14.73
2019-05-13T12:53:13.070Z,10.55
2019-05-13T12:55:41.740Z,10.48
2019-05-13T12:58:12.166Z,16.73
2019-05-13T13:00:45.022Z,11.33
2019-05-13T13:03:13.738Z,10.05
2019-05-13T13:05:43.322Z,10.32
2019-05-13T13:08:24.702Z,10.20
2019-05-13T13:10:46.570Z,10.72
2019-05-13T13:13:51.584Z,16.07
2019-05-13T13:15:52.928Z,11.65
2019-05-13T13:18:22.426Z,9.90
2019-05-13T13:21:00.295Z,12.33
2019-05-13T13:23:23.716Z,9.63
2019-05-13T13:25:56.669Z,13.75
2019-05-13T13:30:53.505Z,11.08
2019-05-13T13:33:22.299Z,13.60
2019-05-13T13:35:59.563Z,11.38
2019-05-13T13:38:25.318Z,13.58
2019-05-13T13:43:24.911Z,10.60
2019-05-13T13:46:07.544Z,10.90
2019-05-13T13:48:25.726Z,13.72
2019-05-13T13:50:56.522Z,12.68
2019-05-13T13:53:26.455Z,15.10
2019-05-13T13:55:56.159Z,23.47
2019-05-13T13:58:25.888Z,27.45
2019-05-13T14:01:05.834Z,16.75
2019-05-13T14:03:25.085Z,12.50
2019-05-13T14:05:54.287Z,12.95
2019-05-13T14:06:25.319Z,16.07
2019-05-13T14:06:29.233Z,10.95
2019-05-13T14:06:58.554Z,13.25
2019-05-13T14:07:09.010Z,9.98
2019-05-13T14:08:23.580Z,9.03
2019-05-13T14:10:52.407Z,10.95
2019-05-13T14:13:21.941Z,11.25
2019-05-13T14:15:52.779Z,13.60
2019-05-13T14:18:26.552Z,9.45
2019-05-13T14:20:52.888Z,10.78
2019-05-13T14:23:22.076Z,9.78
2019-05-13T14:25:52.961Z,8.20
2019-05-13T14:28:23.016Z,10.38
2019-05-13T14:30:51.653Z,9.05
2019-05-13T14:33:20.324Z,13.00
2019-05-13T14:35:48.971Z,11.03
2019-05-13T14:38:17.756Z,9.53
2019-05-13T14:40:51.847Z,12.37
2019-05-13T14:43:22.970Z,9.90
2019-05-13T14:45:53.027Z,9.85
2019-05-13T14:48:22.371Z,11.03
2019-05-13T14:50:52.316Z,11.70
2019-05-13T14:53:32.397Z,9.25
2019-05-13T14:56:02.962Z,7.97
2019-05-13T14:58:45.199Z,10.10
2019-05-13T15:01:19.770Z,8.63
2019-05-13T15:03:48.900Z,11.83
2019-05-13T15:06:17.664Z,9.18
2019-05-13T15:08:46.492Z,12.07
2019-05-13T15:11:16.860Z,12.82
2019-05-13T15:13:47.219Z,12.15
2019-05-13T15:16:17.551Z,15.58
2019-05-13T15:18:46.215Z,11.30
2019-05-13T15:21:14.784Z,12.20
2019-05-13T15:23:46.023Z,10.15
2019-05-13T15:26:14.699Z,9.73
2019-05-13T15:28:43.549Z,10.00
2019-05-13T15:31:12.219Z,11.08
2019-05-13T15:33:41.584Z,9.90
2019-05-13T15:36:11.917Z,10.32
2019-05-13T15:38:46.092Z,9.75
2019-05-13T15:41:15.869Z,10.40
2019-05-13T15:43:46.667Z,14.78
2019-05-13T15:46:15.578Z,11.75
2019-05-13T15:48:44.162Z,17.48
2019-05-13T15:51:12.807Z,10.58
2019-05-13T15:53:43.684Z,12.60
2019-05-13T15:56:12.506Z,12.93
2019-05-13T15:58:43.590Z,11.88
2019-05-13T16:01:12.521Z,12.82
2019-05-13T16:03:41.693Z,12.55
2019-05-13T16:06:17.542Z,13.68
2019-05-13T16:08:57.175Z,16.50
2019-05-13T16:11:16.615Z,11.30
2019-05-13T16:13:54.040Z,15.15
2019-05-13T16:16:32.283Z,13.48
2019-05-13T16:19:00.549Z,9.33
2019-05-13T16:21:32.168Z,12.00
2019-05-13T16:24:02.657Z,10.85
2019-05-13T16:26:32.073Z,11.12
2019-05-13T16:29:02.161Z,13.93
2019-05-13T16:31:31.853Z,14.05
2019-05-13T16:34:01.565Z,13.20
2019-05-13T16:36:36.298Z,12.20
2019-05-13T16:39:08.581Z,12.30
2019-05-13T16:41:42.603Z,11.05
2019-05-13T16:44:11.977Z,14.98
2019-05-13T16:46:44.848Z,12.45
2019-05-13T16:49:13.583Z,14.68
2019-05-13T16:51:42.826Z,18.17
2019-05-13T16:54:11.785Z,12.18
2019-05-13T16:56:42.039Z,12.18
2019-05-13T16:59:11.019Z,12.63
2019-05-13T17:01:41.829Z,12.68
2019-05-13T17:04:12.364Z,13.62
2019-05-13T17:06:41.642Z,14.33
2019-05-13T17:09:11.525Z,13.93
2019-05-13T17:11:41.510Z,15.60
2019-05-13T17:14:10.574Z,15.15
2019-05-13T17:16:41.186Z,14.75
2019-05-13T17:19:11.852Z,12.03
2019-05-13T17:21:41.092Z,12.50
2019-05-13T17:24:12.319Z,15.75
2019-05-13T17:26:41.786Z,16.95
2019-05-13T17:29:12.032Z,12.98
2019-05-13T17:31:41.782Z,12.15
2019-05-13T17:34:12.080Z,15.05
2019-05-13T17:36:41.948Z,15.83
2019-05-13T17:39:12.486Z,13.88
2019-05-13T17:41:41.630Z,17.30
2019-05-13T17:44:11.649Z,17.48
2019-05-13T17:46:41.795Z,12.33
2019-05-13T17:49:11.854Z,11.63
2019-05-13T17:51:42.591Z,15.15
2019-05-13T17:54:11.972Z,13.53
2019-05-13T17:56:42.723Z,18.27
2019-05-13T17:59:11.706Z,15.80
2019-05-13T18:01:41.261Z,15.50
2019-05-13T18:04:11.870Z,16.12
2019-05-13T18:06:41.725Z,20.68
2019-05-13T18:09:11.930Z,14.47
2019-05-13T18:11:45.305Z,15.25
2019-05-13T18:14:14.093Z,24.20
2019-05-13T18:16:42.798Z,21.23
2019-05-13T18:19:12.119Z,33.98
2019-05-13T18:22:05.188Z,35.05
2019-05-13T18:24:35.183Z,30.60
2019-05-13T18:29:55.655Z,25.32
2019-05-13T18:32:26.216Z,26.30
2019-05-13T18:34:56.293Z,26.17
2019-05-13T18:37:25.986Z,8.13
2019-05-13T18:39:54.750Z,9.53
2019-05-13T18:42:23.410Z,14.58
2019-05-13T18:44:56.310Z,9.00
2019-05-13T18:47:25.056Z,9.40
2019-05-13T18:49:53.704Z,7.50
2019-05-13T18:52:22.500Z,7.72
2019-05-13T18:54:51.476Z,7.37
2019-05-13T18:57:21.323Z,6.83
2019-05-13T18:59:52.076Z,6.92
2019-05-13T19:02:21.446Z,9.35
2019-05-13T19:04:52.121Z,7.05
2019-05-13T19:07:21.888Z,5.95
2019-05-13T19:09:52.272Z,5.85
2019-05-13T19:12:21.949Z,5.62
2019-05-13T19:14:51.674Z,6.00
2019-05-13T19:17:22.345Z,6.35
2019-05-13T19:19:51.530Z,5.60
2019-05-13T19:22:21.445Z,6.75
2019-05-13T19:24:51.808Z,10.68
2019-05-13T19:27:23.793Z,7.12
2019-05-13T19:29:52.518Z,8.65
2019-05-13T19:32:21.985Z,7.83
2019-05-13T19:34:53.782Z,9.50
2019-05-13T19:37:22.665Z,4.62
2019-05-13T19:39:51.504Z,6.80
2019-05-13T19:42:22.369Z,5.22
2019-05-13T19:44:51.200Z,5.20
2019-05-13T19:47:20.168Z,4.20
2019-05-13T19:49:49.044Z,5.05
2019-05-13T19:52:17.775Z,5.72
2019-05-13T19:54:46.454Z,4.00
2019-05-13T19:57:15.080Z,4.40
2019-05-13T19:59:43.912Z,3.00
2019-05-13T20:02:12.589Z,5.62
2019-05-13T20:04:41.565Z,4.25
2019-05-13T20:07:11.900Z,3.30
2019-05-13T20:09:42.547Z,4.97
2019-05-13T20:12:11.332Z,4.35
2019-05-13T20:14:40.114Z,3.80
2019-05-13T20:17:09.285Z,3.70
2019-05-13T20:19:47.604Z,3.90
2019-05-13T20:22:08.542Z,4.15
2019-05-13T20:24:37.300Z,3.50
2019-05-13T20:27:05.948Z,5.12
2019-05-13T20:29:34.656Z,3.50
2019-05-13T20:32:03.408Z,4.80
2019-05-13T20:34:32.228Z,4.20
2019-05-13T20:37:02.089Z,5.72
2019-05-13T20:39:32.071Z,5.33
2019-05-13T20:42:01.578Z,5.05
2019-05-13T20:44:31.341Z,5.25
2019-05-13T20:47:01.550Z,7.45
2019-05-13T20:49:31.223Z,7.40
2019-05-13T20:52:00.200Z,7.65
2019-05-13T20:54:31.207Z,8.93
2019-05-13T20:57:01.788Z,12.58
2019-05-13T20:59:31.998Z,8.63
2019-05-13T21:02:02.251Z,12.47
2019-05-13T21:04:32.207Z,10.15
2019-05-13T21:07:02.089Z,12.75
2019-05-13T21:09:31.671Z,10.75
2019-05-13T21:12:01.744Z,9.85
2019-05-13T21:14:32.018Z,9.13
2019-05-13T21:17:01.462Z,8.80
2019-05-13T21:19:39.265Z,8.00
2019-05-13T21:22:00.373Z,9.65
2019-05-13T21:24:29.013Z,11.50
2019-05-13T21:26:57.721Z,11.15
2019-05-13T21:29:26.388Z,9.23
2019-05-13T21:31:55.095Z,8.38
2019-05-13T21:34:23.756Z,11.10
2019-05-13T21:36:52.440Z,10.15
2019-05-13T21:39:21.485Z,7.85
2019-05-13T21:41:51.935Z,8.93
2019-05-13T21:44:20.704Z,8.90
2019-05-13T21:46:51.416Z,10.75
2019-05-13T21:49:21.345Z,9.35
2019-05-13T21:51:52.045Z,8.80
2019-05-13T21:54:20.459Z,7.55
2019-05-13T21:56:51.468Z,9.18
2019-05-13T21:59:23.063Z,8.55
2019-05-13T22:01:52.079Z,9.15
2019-05-13T22:04:21.504Z,10.85
2019-05-13T22:06:50.368Z,5.12
2019-05-13T22:09:19.026Z,5.33
2019-05-13T22:11:47.716Z,3.12
2019-05-13T22:14:16.353Z,3.45
2019-05-13T22:16:45.089Z,3.92
2019-05-13T22:19:13.791Z,3.45
2019-05-13T22:21:42.579Z,4.00
2019-05-13T22:24:11.717Z,3.60
2019-05-13T22:26:42.038Z,4.50
2019-05-13T22:29:11.082Z,5.15
2019-05-13T22:31:41.821Z,6.55
2019-05-13T22:34:12.138Z,6.65
2019-05-13T22:36:40.451Z,9.38
2019-05-13T22:39:11.347Z,10.70
2019-05-13T22:41:41.887Z,13.80
2019-05-13T22:44:11.663Z,13.03
2019-05-13T22:46:41.310Z,15.75
2019-05-13T22:49:11.684Z,17.12
2019-05-13T22:51:41.326Z,19.00
2019-05-13T22:54:11.892Z,15.28
2019-05-13T22:56:41.254Z,15.00
2019-05-13T22:59:12.262Z,14.18
2019-05-13T23:01:41.913Z,13.60
2019-05-13T23:04:11.451Z,9.68
2019-05-13T23:06:41.023Z,16.10
2019-05-13T23:09:12.237Z,12.00
2019-05-13T23:11:41.784Z,13.48
2019-05-13T23:14:13.372Z,14.35
2019-05-13T23:16:42.171Z,13.78
2019-05-13T23:19:11.212Z,12.82
2019-05-13T23:21:41.846Z,15.38
2019-05-13T23:24:11.342Z,12.45
2019-05-13T23:26:42.274Z,13.38
2019-05-13T23:29:10.653Z,14.28
2019-05-13T23:31:41.329Z,13.98
2019-05-13T23:34:11.844Z,11.83
2019-05-13T23:36:42.273Z,12.47
2019-05-13T23:39:11.623Z,11.18
2019-05-13T23:41:41.635Z,9.10
2019-05-13T23:44:24.217Z,8.90
2019-05-13T23:46:42.066Z,7.50
2019-05-13T23:49:11.834Z,16.73
2019-05-13T23:51:41.359Z,8.05
2019-05-13T23:54:12.261Z,6.97
2019-05-13T23:56:41.692Z,7.95
2019-05-13T23:59:15.716Z,7.85
